createdAt,value
2017-07-12T00:00:55.520Z,62.20
2017-07-12T00:03:29.232Z,62.30
2017-07-12T00:06:02.926Z,62.30
2017-07-12T00:08:36.735Z,62.40
2017-07-12T00:11:11.123Z,62.50
2017-07-12T00:13:44.644Z,62.50
2017-07-12T00:16:18.447Z,62.50
2017-07-12T00:18:52.051Z,62.50
2017-07-12T00:21:25.647Z,62.50
2017-07-12T00:23:59.247Z,62.70
2017-07-12T00:26:32.928Z,62.70
2017-07-12T00:29:06.535Z,62.50
2017-07-12T00:31:40.155Z,62.60
2017-07-12T00:34:13.699Z,62.60
2017-07-12T00:36:48.171Z,62.60
2017-07-12T00:39:22.507Z,62.50
2017-07-12T00:41:56.399Z,62.50
2017-07-12T00:44:30.095Z,62.60
2017-07-12T00:47:03.698Z,62.70
2017-07-12T00:49:37.186Z,62.70
2017-07-12T00:52:11.700Z,62.20
2017-07-12T00:54:45.324Z,62.70
2017-07-12T00:57:19.027Z,62.70
2017-07-12T00:59:52.628Z,62.70
2017-07-12T01:02:27.127Z,62.80
2017-07-12T01:05:00.949Z,62.80
2017-07-12T01:07:34.559Z,62.80
2017-07-12T01:10:08.250Z,63.00
2017-07-12T01:12:42.677Z,62.90
2017-07-12T01:15:17.056Z,62.90
2017-07-12T01:17:50.807Z,63.00
2017-07-12T01:20:25.827Z,62.90
2017-07-12T01:22:59.527Z,62.90
2017-07-12T01:25:33.023Z,63.00
2017-07-12T01:28:06.935Z,63.00
2017-07-12T01:30:40.527Z,63.20
2017-07-12T01:33:14.422Z,63.40
2017-07-12T01:35:48.243Z,63.50
2017-07-12T01:38:21.759Z,63.50
2017-07-12T01:40:55.547Z,63.60
2017-07-12T01:43:29.318Z,63.70
2017-07-12T01:46:03.475Z,63.70
2017-07-12T01:48:37.955Z,63.80
2017-07-12T01:51:11.793Z,63.70
2017-07-12T01:53:45.387Z,63.80
2017-07-12T01:56:19.067Z,63.80
2017-07-12T01:58:52.903Z,64.00
2017-07-12T02:01:26.496Z,63.90
2017-07-12T02:04:00.193Z,63.90
2017-07-12T02:06:33.801Z,64.00
2017-07-12T02:09:07.598Z,64.10
2017-07-12T02:11:41.407Z,64.10
2017-07-12T02:14:15.098Z,64.10
2017-07-12T02:16:48.869Z,64.30
2017-07-12T02:19:22.519Z,64.40
2017-07-12T02:21:56.119Z,64.40
2017-07-12T02:24:30.534Z,64.70
2017-07-12T02:27:04.140Z,64.60
2017-07-12T02:29:38.560Z,64.30
2017-07-12T02:32:12.028Z,64.70
2017-07-12T02:34:45.858Z,64.70
2017-07-12T02:37:19.511Z,64.90
2017-07-12T02:39:53.080Z,65.00
2017-07-12T02:42:26.658Z,64.80
2017-07-12T02:45:00.298Z,64.80
2017-07-12T02:47:34.171Z,65.00
2017-07-12T02:50:07.727Z,65.10
2017-07-12T02:52:41.367Z,65.10
2017-07-12T02:55:14.972Z,65.00
2017-07-12T02:57:48.567Z,65.10
2017-07-12T03:00:22.266Z,65.10
2017-07-12T03:02:56.056Z,65.10
2017-07-12T03:05:30.591Z,65.10
2017-07-12T03:08:04.303Z,65.10
2017-07-12T03:10:37.900Z,65.00
2017-07-12T03:13:11.495Z,65.00
2017-07-12T03:15:45.199Z,65.00
2017-07-12T03:18:18.806Z,65.00
2017-07-12T03:20:52.604Z,65.00
2017-07-12T03:23:26.203Z,65.10
2017-07-12T03:25:59.907Z,65.10
2017-07-12T03:28:34.380Z,65.00
2017-07-12T03:31:08.238Z,65.10
2017-07-12T03:33:41.935Z,65.20
2017-07-12T03:36:15.636Z,65.20
2017-07-12T03:38:49.235Z,65.20
2017-07-12T03:41:23.051Z,65.20
2017-07-12T03:43:56.748Z,65.20
2017-07-12T03:46:30.551Z,65.20
2017-07-12T03:49:04.255Z,65.20
2017-07-12T03:51:37.762Z,65.20
2017-07-12T03:54:11.456Z,65.30
2017-07-12T03:56:45.159Z,65.50
2017-07-12T03:59:18.627Z,65.50
2017-07-12T04:01:52.255Z,65.60
2017-07-12T04:04:27.698Z,66.00
2017-07-12T04:07:01.611Z,65.60
2017-07-12T04:09:36.223Z,66.30
2017-07-12T04:12:09.903Z,65.60
2017-07-12T04:14:44.219Z,65.60
2017-07-12T04:17:18.771Z,65.50
2017-07-12T04:19:52.463Z,65.50
2017-07-12T04:22:26.259Z,65.70
2017-07-12T04:24:59.843Z,65.70
2017-07-12T04:27:34.191Z,65.70
2017-07-12T04:30:08.580Z,65.90
2017-07-12T04:32:42.215Z,65.90
2017-07-12T04:35:15.708Z,65.90
2017-07-12T04:37:49.377Z,65.80
2017-07-12T04:40:23.319Z,65.80
2017-07-12T04:42:57.024Z,65.90
2017-07-12T04:45:30.595Z,65.90
2017-07-12T04:48:04.328Z,65.90
2017-07-12T04:50:37.928Z,65.90
2017-07-12T04:53:11.529Z,65.90
2017-07-12T04:55:46.052Z,66.00
2017-07-12T04:58:19.747Z,65.90
2017-07-12T05:00:53.247Z,66.10
2017-07-12T05:03:26.951Z,66.20
2017-07-12T05:06:00.651Z,66.10
2017-07-12T05:08:34.791Z,65.90
2017-07-12T05:11:09.068Z,66.10
2017-07-12T05:13:42.888Z,66.10
2017-07-12T05:16:16.483Z,66.10
2017-07-12T05:18:50.804Z,66.30
2017-07-12T05:21:25.274Z,66.30
2017-07-12T05:23:58.806Z,66.50
2017-07-12T05:26:32.427Z,66.50
2017-07-12T05:29:06.736Z,66.60
2017-07-12T05:31:40.972Z,66.60
2017-07-12T05:34:14.554Z,66.50
2017-07-12T05:36:48.153Z,66.50
2017-07-12T05:39:21.755Z,66.60
2017-07-12T05:41:56.066Z,66.40
2017-07-12T05:44:29.874Z,66.40
2017-07-12T05:47:03.485Z,66.50
2017-07-12T05:49:37.878Z,66.50
2017-07-12T05:52:11.600Z,66.50
2017-07-12T05:54:45.199Z,66.50
2017-07-12T05:57:20.133Z,66.50
2017-07-12T05:59:53.837Z,66.50
2017-07-12T06:02:27.639Z,66.70
2017-07-12T06:05:01.244Z,66.70
2017-07-12T06:07:35.731Z,66.80
2017-07-12T06:10:09.248Z,66.80
2017-07-12T06:12:42.849Z,66.80
2017-07-12T06:15:17.363Z,67.00
2017-07-12T06:17:52.446Z,67.00
2017-07-12T06:20:26.003Z,67.10
2017-07-12T06:22:59.606Z,67.00
2017-07-12T06:25:33.210Z,67.10
2017-07-12T06:28:06.915Z,67.20
2017-07-12T06:30:40.619Z,67.10
2017-07-12T06:33:14.934Z,67.20
2017-07-12T06:35:48.640Z,67.30
2017-07-12T06:38:22.435Z,68.00
2017-07-12T06:40:56.037Z,67.80
2017-07-12T06:43:29.743Z,68.10
2017-07-12T06:46:03.546Z,68.20
2017-07-12T06:48:37.052Z,68.40
2017-07-12T06:51:11.435Z,68.90
2017-07-12T06:53:45.026Z,68.90
2017-07-12T06:56:18.767Z,69.20
2017-07-12T06:58:52.971Z,69.30
2017-07-12T07:01:26.583Z,69.50
2017-07-12T07:04:00.903Z,69.00
2017-07-12T07:06:34.802Z,69.50
2017-07-12T07:09:08.263Z,70.00
2017-07-12T07:11:42.007Z,69.60
2017-07-12T07:14:15.508Z,69.40
2017-07-12T07:16:49.203Z,69.60
2017-07-12T07:19:22.752Z,69.60
2017-07-12T07:21:57.122Z,70.20
2017-07-12T07:24:30.826Z,70.20
2017-07-12T07:27:04.614Z,69.70
2017-07-12T07:29:38.744Z,69.90
2017-07-12T07:32:13.166Z,68.30
2017-07-12T07:34:46.651Z,68.30
2017-07-12T07:37:20.372Z,68.30
2017-07-12T07:39:54.271Z,68.60
2017-07-12T07:42:28.062Z,68.60
2017-07-12T07:45:01.783Z,68.60
2017-07-12T07:47:35.383Z,68.70
2017-07-12T07:50:08.988Z,68.70
2017-07-12T07:52:42.680Z,68.60
2017-07-12T07:55:16.594Z,68.20
2017-07-12T07:57:51.108Z,68.20
2017-07-12T08:00:24.819Z,68.20
2017-07-12T08:02:59.133Z,68.20
2017-07-12T08:05:32.891Z,68.20
2017-07-12T08:08:06.651Z,68.40
2017-07-12T08:10:40.239Z,68.50
2017-07-12T08:13:13.838Z,68.40
2017-07-12T08:15:48.255Z,68.50
2017-07-12T08:18:22.032Z,68.40
2017-07-12T08:20:57.042Z,68.00
2017-07-12T08:23:31.406Z,68.00
2017-07-12T08:26:05.128Z,68.00
2017-07-12T08:28:38.819Z,67.90
2017-07-12T08:31:12.315Z,68.00
2017-07-12T08:33:47.350Z,68.30
2017-07-12T08:36:21.042Z,68.50
2017-07-12T08:38:54.615Z,68.60
2017-07-12T08:41:28.191Z,69.00
2017-07-12T08:44:02.658Z,69.00
2017-07-12T08:46:36.264Z,69.00
2017-07-12T08:49:09.762Z,68.60
2017-07-12T08:51:43.886Z,68.30
2017-07-12T08:54:17.688Z,68.00
2017-07-12T08:56:52.054Z,68.70
2017-07-12T08:59:25.913Z,68.70
2017-07-12T09:01:59.615Z,68.70
2017-07-12T09:04:33.210Z,68.40
2017-07-12T09:07:06.676Z,68.50
2017-07-12T09:09:41.226Z,69.80
2017-07-12T09:12:14.783Z,69.00
2017-07-12T09:14:48.277Z,68.80
2017-07-12T09:17:22.952Z,68.20
2017-07-12T09:19:57.370Z,68.60
2017-07-12T09:22:31.182Z,68.60
2017-07-12T09:35:19.386Z,68.90
2017-07-12T09:37:53.019Z,68.80
2017-07-12T09:40:26.887Z,68.70
2017-07-12T09:43:00.491Z,68.70
2017-07-12T09:45:34.190Z,69.60
2017-07-12T09:48:07.787Z,68.50
2017-07-12T09:50:41.594Z,68.80
2017-07-12T09:53:15.147Z,68.50
2017-07-12T09:55:48.893Z,68.40
2017-07-12T09:58:22.848Z,68.50
2017-07-12T10:00:56.399Z,69.00
2017-07-12T10:03:30.005Z,69.10
2017-07-12T10:06:04.430Z,68.90
2017-07-12T10:08:38.230Z,68.90
2017-07-12T10:11:11.830Z,68.80
2017-07-12T10:13:46.138Z,68.70
2017-07-12T10:16:23.607Z,68.70
2017-07-12T10:18:57.339Z,68.80
2017-07-12T10:21:31.042Z,68.90
2017-07-12T10:24:04.747Z,69.40
2017-07-12T10:26:38.456Z,69.30
2017-07-12T10:29:12.046Z,69.30
2017-07-12T10:31:45.644Z,69.50
2017-07-12T10:34:19.249Z,69.30
2017-07-12T10:36:52.814Z,69.30
2017-07-12T10:39:27.372Z,70.10
2017-07-12T10:42:01.069Z,69.40
2017-07-12T10:44:34.681Z,69.60
2017-07-12T10:47:08.380Z,69.30
2017-07-12T10:49:46.062Z,69.50
2017-07-12T10:52:15.783Z,69.40
2017-07-12T10:54:49.280Z,68.90
2017-07-12T10:57:22.981Z,68.80
2017-07-12T10:59:56.575Z,68.70
2017-07-12T11:02:31.003Z,69.20
2017-07-12T11:05:04.803Z,69.20
2017-07-12T11:07:38.370Z,68.90
2017-07-12T11:10:12.007Z,68.80
2017-07-12T11:12:45.719Z,69.20
2017-07-12T11:15:19.311Z,69.50
2017-07-12T11:17:52.859Z,69.30
2017-07-12T11:20:26.911Z,68.80
2017-07-12T11:23:00.515Z,68.90
2017-07-12T11:25:34.099Z,69.40
2017-07-12T11:28:07.700Z,69.00
2017-07-12T11:30:41.623Z,69.10
2017-07-12T11:33:15.223Z,68.90
2017-07-12T11:35:48.818Z,69.20
2017-07-12T11:38:22.967Z,68.90
2017-07-12T11:40:56.534Z,69.50
2017-07-12T11:43:30.342Z,69.90
2017-07-12T11:46:04.150Z,70.10
2017-07-12T11:48:37.643Z,69.80
2017-07-12T11:51:11.242Z,70.10
2017-07-12T11:53:44.839Z,70.10
2017-07-12T11:56:18.321Z,70.00
2017-07-12T11:58:52.737Z,70.40
2017-07-12T12:01:27.382Z,70.10
2017-07-12T12:04:00.943Z,70.10
2017-07-12T12:06:34.889Z,70.10
2017-07-12T12:09:09.515Z,70.20
2017-07-12T12:11:43.312Z,70.30
2017-07-12T12:14:16.898Z,70.20
2017-07-12T12:16:50.718Z,70.20
2017-07-12T12:19:25.351Z,70.50
2017-07-12T12:21:58.895Z,70.50
2017-07-12T12:24:32.617Z,70.30
2017-07-12T12:27:06.332Z,70.40
2017-07-12T12:29:40.874Z,70.20
2017-07-12T12:32:14.478Z,70.20
2017-07-12T12:34:48.041Z,70.20
2017-07-12T12:37:21.687Z,70.50
2017-07-12T12:39:55.351Z,70.40
2017-07-12T12:42:29.025Z,70.40
2017-07-12T12:45:02.726Z,70.40
2017-07-12T12:47:37.414Z,71.00
2017-07-12T12:50:11.092Z,71.00
2017-07-12T12:52:45.531Z,70.70
2017-07-12T12:55:19.349Z,70.90
2017-07-12T12:57:53.194Z,70.70
2017-07-12T13:00:26.942Z,70.80
2017-07-12T13:03:00.450Z,71.30
2017-07-12T13:05:39.972Z,71.50
2017-07-12T13:08:13.783Z,71.30
2017-07-12T13:10:47.397Z,71.30
2017-07-12T13:13:21.191Z,71.10
2017-07-12T13:15:54.995Z,71.40
2017-07-12T13:18:28.814Z,71.40
2017-07-12T13:21:03.427Z,71.40
2017-07-12T13:23:37.341Z,71.30
2017-07-12T13:26:10.984Z,71.50
2017-07-12T13:28:45.467Z,71.70
2017-07-12T13:31:20.163Z,70.90
2017-07-12T13:33:53.780Z,70.90
2017-07-12T13:36:27.487Z,70.70
2017-07-12T13:39:00.982Z,71.00
2017-07-12T13:41:34.587Z,70.60
2017-07-12T13:44:08.287Z,70.00
2017-07-12T13:46:41.883Z,69.90
2017-07-12T13:49:15.485Z,70.10
2017-07-12T13:51:49.074Z,70.00
2017-07-12T13:54:22.687Z,70.10
2017-07-12T13:56:57.209Z,70.90
2017-07-12T13:59:30.813Z,70.00
2017-07-12T14:02:04.414Z,70.20
2017-07-12T14:04:38.222Z,70.10
2017-07-12T14:07:12.021Z,70.00
2017-07-12T14:09:45.511Z,69.90
2017-07-12T14:12:19.116Z,69.90
2017-07-12T14:14:52.687Z,69.80
2017-07-12T14:17:26.288Z,69.80
2017-07-12T14:20:00.114Z,69.80
2017-07-12T14:22:33.702Z,69.90
2017-07-12T14:25:07.390Z,70.00
2017-07-12T14:27:41.047Z,70.20
2017-07-12T14:30:14.727Z,70.10
2017-07-12T14:32:48.375Z,70.00
2017-07-12T14:35:22.107Z,69.60
2017-07-12T14:37:55.711Z,69.80
2017-07-12T14:40:30.351Z,70.40
2017-07-12T14:43:04.055Z,70.30
2017-07-12T14:45:37.622Z,71.00
2017-07-12T14:48:11.153Z,72.00
2017-07-12T14:50:44.823Z,73.80
2017-07-12T14:53:18.527Z,76.30
2017-07-12T14:55:52.217Z,78.50
2017-07-12T14:58:25.807Z,77.50
2017-07-12T15:00:59.339Z,77.80
2017-07-12T15:03:33.062Z,76.50
2017-07-12T15:06:06.655Z,75.80
2017-07-12T15:08:40.234Z,76.20
2017-07-12T15:11:13.855Z,75.80
2017-07-12T15:13:47.455Z,75.10
2017-07-12T15:16:21.074Z,74.30
2017-07-12T15:18:54.868Z,74.30
2017-07-12T15:21:28.575Z,73.70
2017-07-12T15:24:02.153Z,73.30
2017-07-12T15:26:35.728Z,74.50
2017-07-12T15:29:09.362Z,74.50
2017-07-12T15:31:43.071Z,74.50
2017-07-12T15:34:16.773Z,74.70
2017-07-12T15:36:50.323Z,74.30
2017-07-12T15:39:24.015Z,74.70
2017-07-12T15:41:57.731Z,74.70
2017-07-12T15:44:32.303Z,74.10
2017-07-12T15:47:06.675Z,73.00
2017-07-12T15:49:40.315Z,72.90
2017-07-12T15:52:13.926Z,72.70
2017-07-12T15:54:47.519Z,72.10
2017-07-12T15:57:21.175Z,72.30
2017-07-12T15:59:54.821Z,72.10
2017-07-12T16:02:28.581Z,71.80
2017-07-12T16:05:02.093Z,71.30
2017-07-12T16:07:35.691Z,71.10
2017-07-12T16:10:10.143Z,70.70
2017-07-12T16:12:43.752Z,71.10
2017-07-12T16:15:17.339Z,70.90
2017-07-12T16:17:50.876Z,71.10
2017-07-12T16:20:24.543Z,70.70
2017-07-12T16:22:58.244Z,70.40
2017-07-12T16:25:31.942Z,69.90
2017-07-12T16:28:05.647Z,69.80
2017-07-12T16:30:39.123Z,69.10
2017-07-12T16:33:12.692Z,68.90
2017-07-12T16:35:46.452Z,69.00
2017-07-12T16:38:20.157Z,69.20
2017-07-12T16:40:53.639Z,68.10
2017-07-12T16:43:27.211Z,67.30
2017-07-12T16:46:00.846Z,67.10
2017-07-12T16:48:34.555Z,67.10
2017-07-12T16:51:08.379Z,67.30
2017-07-12T16:53:42.135Z,67.10
2017-07-12T16:56:15.895Z,66.90
2017-07-12T16:58:49.567Z,66.90
2017-07-12T17:01:23.479Z,66.40
2017-07-12T17:03:57.251Z,66.70
2017-07-12T17:06:31.382Z,66.50
2017-07-12T17:09:04.995Z,66.90
2017-07-12T17:11:38.598Z,66.70
2017-07-12T17:14:12.142Z,67.10
2017-07-12T17:16:46.511Z,67.00
2017-07-12T17:19:20.183Z,66.80
2017-07-12T17:21:54.024Z,66.70
2017-07-12T17:24:27.624Z,66.30
2017-07-12T17:27:01.323Z,66.40
2017-07-12T17:29:34.823Z,66.30
2017-07-12T17:32:09.071Z,66.20
2017-07-12T17:34:42.683Z,65.70
2017-07-12T17:37:16.373Z,66.10
2017-07-12T17:39:49.847Z,65.80
2017-07-12T17:42:23.392Z,65.50
2017-07-12T17:44:57.022Z,65.30
2017-07-12T17:47:30.875Z,65.10
2017-07-12T17:50:04.523Z,64.90
2017-07-12T17:52:38.087Z,65.70
2017-07-12T17:55:11.584Z,64.90
2017-07-12T17:57:45.290Z,65.40
2017-07-12T18:00:18.811Z,65.40
2017-07-12T18:02:52.383Z,65.40
2017-07-12T18:05:25.851Z,65.20
2017-07-12T18:07:59.341Z,64.50
2017-07-12T18:10:32.817Z,65.20
2017-07-12T18:13:06.367Z,65.30
2017-07-12T18:15:39.959Z,65.10
2017-07-12T18:18:13.663Z,65.10
2017-07-12T18:20:47.195Z,65.20
2017-07-12T18:23:20.682Z,65.20
2017-07-12T18:25:54.299Z,65.10
2017-07-12T18:28:27.947Z,65.10
2017-07-12T18:31:01.408Z,65.40
2017-07-12T18:33:34.978Z,65.30
2017-07-12T18:36:08.521Z,65.60
2017-07-12T18:38:42.003Z,65.60
2017-07-12T18:41:15.471Z,65.40
2017-07-12T18:43:49.051Z,65.10
2017-07-12T18:46:22.582Z,64.80
2017-07-12T18:48:56.107Z,64.40
2017-07-12T18:51:29.659Z,64.70
2017-07-12T18:54:03.218Z,64.50
2017-07-12T18:56:36.696Z,63.90
2017-07-12T18:59:10.194Z,64.00
2017-07-12T19:01:43.674Z,63.60
2017-07-12T19:04:17.237Z,63.90
2017-07-12T19:06:50.713Z,63.50
2017-07-12T19:09:24.228Z,63.00
2017-07-12T19:11:57.791Z,63.40
2017-07-12T19:14:31.578Z,63.30
2017-07-12T19:17:05.198Z,63.30
2017-07-12T19:19:38.715Z,62.40
2017-07-12T19:22:12.183Z,62.10
2017-07-12T19:24:45.823Z,62.30
2017-07-12T19:27:20.300Z,62.10
2017-07-12T19:29:53.847Z,62.30
2017-07-12T19:32:27.467Z,62.00
2017-07-12T19:35:01.119Z,62.10
2017-07-12T19:37:34.577Z,62.20
2017-07-12T19:40:08.147Z,61.90
2017-07-12T19:42:41.630Z,61.30
2017-07-12T19:45:15.314Z,61.40
2017-07-12T19:47:48.819Z,61.20
2017-07-12T19:50:22.297Z,61.20
2017-07-12T19:52:55.819Z,61.30
2017-07-12T19:55:29.371Z,61.40
2017-07-12T19:58:02.830Z,61.20
2017-07-12T20:00:36.555Z,61.80
2017-07-12T20:03:10.219Z,61.30
2017-07-12T20:05:43.687Z,60.80
2017-07-12T20:08:17.216Z,60.90
2017-07-12T20:10:50.850Z,60.90
2017-07-12T20:13:24.375Z,60.80
2017-07-12T20:15:57.950Z,60.40
2017-07-12T20:18:31.410Z,60.40
2017-07-12T20:21:05.111Z,60.30
2017-07-12T20:23:38.751Z,59.10
2017-07-12T20:26:12.307Z,59.10
2017-07-12T20:28:45.871Z,58.60
2017-07-12T20:31:19.430Z,58.90
2017-07-12T20:33:53.051Z,58.20
2017-07-12T20:36:26.651Z,58.00
2017-07-12T20:39:00.282Z,58.50
2017-07-12T20:41:33.858Z,57.70
2017-07-12T20:44:07.353Z,57.20
2017-07-12T20:46:40.889Z,57.60
2017-07-12T20:49:14.522Z,57.60
2017-07-12T20:51:48.095Z,56.90
2017-07-12T20:54:21.563Z,56.90
2017-07-12T20:56:55.111Z,57.20
2017-07-12T20:59:28.743Z,57.00
2017-07-12T21:02:02.398Z,57.10
2017-07-12T21:04:36.047Z,56.80
2017-07-12T21:07:09.768Z,56.50
2017-07-12T21:09:43.255Z,56.40
2017-07-12T21:12:16.806Z,56.60
2017-07-12T21:14:51.801Z,56.50
2017-07-12T21:17:25.428Z,56.60
2017-07-12T21:19:59.814Z,56.60
2017-07-12T21:22:33.500Z,56.50
2017-07-12T21:25:07.031Z,56.20
2017-07-12T21:27:40.515Z,56.30
2017-07-12T21:30:13.979Z,56.20
2017-07-12T21:32:47.547Z,56.30
2017-07-12T21:35:21.802Z,57.00
2017-07-12T21:37:55.366Z,57.00
2017-07-12T21:40:28.895Z,56.30
2017-07-12T21:43:02.554Z,56.00
2017-07-12T21:45:36.355Z,56.30
2017-07-12T21:48:10.164Z,56.20
2017-07-12T21:50:43.768Z,56.30
2017-07-12T21:53:35.264Z,56.30
2017-07-12T21:56:26.480Z,56.50
2017-07-12T21:59:17.851Z,56.20
2017-07-12T22:02:10.206Z,56.60
2017-07-12T22:05:01.539Z,56.60
2017-07-12T22:07:53.640Z,56.90
2017-07-12T22:10:44.886Z,56.90
2017-07-12T22:13:37.225Z,57.10
2017-07-12T22:16:28.747Z,57.20
2017-07-12T22:19:20.947Z,57.10
2017-07-12T22:22:12.398Z,57.10
2017-07-12T22:25:03.910Z,57.00
2017-07-12T22:27:55.338Z,56.90
2017-07-12T22:30:46.867Z,57.00
2017-07-12T22:33:38.171Z,57.00
2017-07-12T22:36:29.723Z,57.10
2017-07-12T22:39:09.876Z,56.90
2017-07-12T22:41:49.178Z,56.80
2017-07-12T22:44:22.591Z,56.90
2017-07-12T22:46:56.199Z,57.20
2017-07-12T22:49:29.912Z,57.30
2017-07-12T22:52:03.714Z,57.30
2017-07-12T22:54:37.310Z,57.20
2017-07-12T22:57:10.918Z,57.20
2017-07-12T22:59:44.723Z,57.30
2017-07-12T23:02:18.418Z,57.10
2017-07-12T23:04:52.023Z,57.20
2017-07-12T23:07:25.627Z,57.30
2017-07-12T23:10:00.098Z,57.10
2017-07-12T23:12:33.750Z,57.20
2017-07-12T23:15:07.347Z,57.00
2017-07-12T23:17:41.770Z,57.00
2017-07-12T23:20:15.464Z,57.00
2017-07-12T23:22:49.166Z,57.10
2017-07-12T23:25:22.774Z,57.10
2017-07-12T23:27:56.371Z,57.00
2017-07-12T23:30:30.069Z,57.30
2017-07-12T23:33:04.493Z,57.20
2017-07-12T23:35:38.190Z,57.20
2017-07-12T23:38:12.328Z,56.80
2017-07-12T23:40:46.008Z,57.10
2017-07-12T23:43:19.711Z,57.10
2017-07-12T23:45:53.417Z,56.90
2017-07-12T23:48:27.900Z,56.90
2017-07-12T23:51:01.534Z,56.90
2017-07-12T23:53:35.035Z,56.40
2017-07-12T23:56:08.519Z,57.30
2017-07-12T23:58:43.059Z,57.10
